Time,TemperatureF,DewpointF,PressureIn,WindDirection,WindDirectionDegrees,WindSpeedMPH,WindSpeedGustMPH,Humidity,HourlyPrecipIn,Conditions,Clouds,dailyrainin,SoftwareType,DateUTC
2013-09-03 00:00:00,70.7,64.6,30.18,SSW,211,0.0,0.0,81,-99.99,,,0.00,VWS V14.01,2013-09-03 04:00:00,
2013-09-03 00:30:00,70.7,64.6,30.18,SSW,212,0.0,0.0,81,-99.99,,,0.00,VWS V14.01,2013-09-03 04:30:00,
2013-09-03 01:00:00,70.7,64.9,30.18,SSW,201,0.0,0.0,82,-99.99,,,0.00,VWS V14.01,2013-09-03 05:00:00,
2013-09-03 01:30:00,70.5,64.8,30.18,SSW,200,0.0,0.0,82,-99.99,,,0.00,VWS V14.01,2013-09-03 05:30:00,
2013-09-03 02:00:00,70.2,64.4,30.15,SSW,196,0.0,0.0,82,-99.99,,,0.00,VWS V14.01,2013-09-03 06:00:00,
2013-09-03 02:30:00,69.8,64.1,30.15,SSW,207,0.0,3.1,82,-99.99,,,0.00,VWS V14.01,2013-09-03 06:30:00,
2013-09-03 03:00:00,69.4,64.1,30.15,SSW,209,0.0,4.0,83,-99.99,,,0.00,VWS V14.01,2013-09-03 07:00:00,
2013-09-03 03:30:00,69.3,64.2,30.15,SSW,212,0.0,4.5,84,-99.99,,,0.00,VWS V14.01,2013-09-03 07:30:00,
2013-09-03 04:00:00,69.3,64.6,30.15,SW,226,4.0,5.8,85,-99.99,,,0.00,VWS V14.01,2013-09-03 08:00:00,
2013-09-03 04:30:00,69.4,65.1,30.15,SW,229,0.0,4.0,86,-99.99,,,0.00,VWS V14.01,2013-09-03 08:30:00,
2013-09-03 05:00:00,69.4,65.1,30.15,SW,218,0.0,4.5,86,-99.99,,,0.00,VWS V14.01,2013-09-03 09:00:00,
2013-09-03 05:30:00,69.3,65.2,30.15,South,186,0.0,6.7,87,-99.99,,,0.08,VWS V14.01,2013-09-03 09:30:00,
2013-09-03 06:00:00,69.3,65.2,30.18,South,183,0.0,5.4,87,-99.99,,,0.08,VWS V14.01,2013-09-03 10:00:00,
2013-09-03 06:30:00,69.1,65.4,30.18,SSW,195,0.0,7.4,88,-99.99,,,0.16,VWS V14.01,2013-09-03 10:30:00,
2013-09-03 07:00:00,69.3,65.6,30.18,SSW,198,0.0,0.0,88,-99.99,,,0.16,VWS V14.01,2013-09-03 11:00:00,
2013-09-03 07:30:00,69.1,65.7,30.21,South,189,0.0,0.0,89,-99.99,,,0.16,VWS V14.01,2013-09-03 11:30:00,
2013-09-03 08:00:00,69.1,65.7,30.21,SSW,199,0.0,0.0,89,-99.99,,,0.16,VWS V14.01,2013-09-03 12:00:00,
2013-09-03 08:30:00,69.3,65.9,30.21,South,186,0.0,0.0,89,-99.99,,,0.16,VWS V14.01,2013-09-03 12:30:00,
2013-09-03 09:00:00,69.8,66.7,30.21,SSW,192,0.0,0.0,90,-99.99,,,0.16,VWS V14.01,2013-09-03 13:00:00,
2013-09-03 09:30:00,70.0,66.9,30.21,SSW,198,0.0,4.9,90,-99.99,,,0.16,VWS V14.01,2013-09-03 13:30:00,
2013-09-03 10:00:00,70.7,67.6,30.21,South,186,3.6,5.8,90,-99.99,,,0.16,VWS V14.01,2013-09-03 14:00:00,
2013-09-03 10:30:00,72.1,69.4,30.21,SSW,207,0.0,5.4,91,-99.99,,,0.16,VWS V14.01,2013-09-03 14:30:00,
2013-09-03 11:00:00,73.4,70.3,30.21,SSW,196,0.0,4.0,90,-99.99,,,0.16,VWS V14.01,2013-09-03 15:00:00,
2013-09-03 11:30:00,74.1,70.0,30.21,NNE,15,0.0,4.0,87,-99.99,,,0.16,VWS V14.01,2013-09-03 15:30:00,
2013-09-03 12:00:00,75.2,67.9,30.24,South,190,0.0,4.5,78,-99.99,,,0.16,VWS V14.01,2013-09-03 16:00:00,
2013-09-03 12:30:00,76.5,67.6,30.21,NNE,17,0.0,0.0,74,-99.99,,,0.16,VWS V14.01,2013-09-03 16:30:00,
2013-09-03 13:00:00,78.1,67.5,30.21,SSW,195,0.0,4.9,70,-99.99,,,0.16,VWS V14.01,2013-09-03 17:00:00,
2013-09-03 13:30:00,77.5,65.3,30.21,NNE,17,0.0,0.0,66,-99.99,,,0.16,VWS V14.01,2013-09-03 17:30:00,
2013-09-03 14:00:00,80.4,63.3,30.21,NE,36,0.0,4.9,56,-99.99,,,0.16,VWS V14.01,2013-09-03 18:00:00,
2013-09-03 14:30:00,80.4,59.5,30.21,SW,231,0.0,4.5,49,-99.99,,,0.16,VWS V14.01,2013-09-03 18:30:00,
2013-09-03 15:00:00,83.5,61.2,30.21,East,94,0.0,0.0,47,-99.99,,,0.16,VWS V14.01,2013-09-03 19:00:00,
2013-09-03 15:30:00,84.2,60.6,30.18,WSW,237,0.0,0.0,45,-99.99,,,0.16,VWS V14.01,2013-09-03 19:30:00,
2013-09-03 16:00:00,84.7,59.8,30.18,SW,235,0.0,0.0,43,-99.99,,,0.16,VWS V14.01,2013-09-03 20:00:00,
2013-09-03 16:30:00,86.5,57.2,30.18,South,178,0.0,4.9,37,-99.99,,,0.16,VWS V14.01,2013-09-03 20:30:00,
2013-09-03 17:00:00,83.7,57.5,30.18,SSW,198,0.0,0.0,41,-99.99,,,0.16,VWS V14.01,2013-09-03 21:00:00,
2013-09-03 17:30:00,86.2,59.0,30.18,SSW,202,0.0,0.0,40,-99.99,,,0.16,VWS V14.01,2013-09-03 21:30:00,
2013-09-03 18:00:00,82.6,56.5,30.18,SW,236,0.0,0.0,41,-99.99,,,0.16,VWS V14.01,2013-09-03 22:00:00,
2013-09-03 18:30:00,79.0,59.3,30.18,SW,228,0.0,0.0,51,-99.99,,,0.16,VWS V14.01,2013-09-03 22:30:00,
2013-09-03 19:00:00,77.2,61.8,30.18,WSW,238,0.0,0.0,59,-99.99,,,0.16,VWS V14.01,2013-09-03 23:00:00,
2013-09-03 19:30:00,75.9,61.5,30.18,SW,232,0.0,0.0,61,-99.99,,,0.16,VWS V14.01,2013-09-03 23:30:00,
2013-09-03 20:00:00,73.6,61.1,30.21,SW,232,0.0,0.0,65,-99.99,,,0.16,VWS V14.01,2013-09-04 00:00:00,
2013-09-03 20:30:00,72.3,61.2,30.21,WSW,252,0.0,0.0,68,-99.99,,,0.16,VWS V14.01,2013-09-04 00:30:00,
2013-09-03 21:00:00,72.3,62.0,30.24,WSW,238,0.0,0.0,70,-99.99,,,0.16,VWS V14.01,2013-09-04 01:00:00,
2013-09-03 21:30:00,72.5,61.8,30.24,SW,230,0.0,0.0,69,-99.99,,,0.16,VWS V14.01,2013-09-04 01:30:00,
2013-09-03 22:00:00,72.1,61.4,30.24,ENE,63,0.0,0.0,69,-99.99,,,0.16,VWS V14.01,2013-09-04 02:00:00,
2013-09-03 22:30:00,71.4,60.7,30.27,NE,50,0.0,0.0,69,-99.99,,,0.16,VWS V14.01,2013-09-04 02:30:00,
2013-09-03 23:00:00,70.3,60.1,30.27,NE,46,0.0,0.0,70,-99.99,,,0.16,VWS V14.01,2013-09-04 03:00:00,
2013-09-03 23:30:00,69.6,59.8,30.27,ENE,64,0.0,3.1,71,-99.99,,,0.16,VWS V14.01,2013-09-04 03:30:00,